sensor_id;sensor_type;location;lat;lon;timestamp;pressure;altitude;pressure_sealevel;temperature;humidity
74778;BME280;63298;53.164;8.610;2024-02-04T00:01:25;102100.28;;;8.39;80.65
74778;BME280;63298;53.164;8.610;2024-02-04T00:03:53;102088.84;;;8.35;80.35
74778;BME280;63298;53.164;8.610;2024-02-04T00:06:20;102090.72;;;8.35;80.36
74778;BME280;63298;53.164;8.610;2024-02-04T00:08:54;102082.28;;;8.36;80.23
74778;BME280;63298;53.164;8.610;2024-02-04T00:11:23;102085.91;;;8.37;80.21
74778;BME280;63298;53.164;8.610;2024-02-04T00:13:50;102071.97;;;8.38;79.99
74778;BME280;63298;53.164;8.610;2024-02-04T00:16:25;102068.94;;;8.33;80.66
74778;BME280;63298;53.164;8.610;2024-02-04T00:18:50;102073.38;;;8.34;80.83
74778;BME280;63298;53.164;8.610;2024-02-04T00:21:16;102073.38;;;8.34;80.48
74778;BME280;63298;53.164;8.610;2024-02-04T00:23:53;102077.47;;;8.38;80.45
74778;BME280;63298;53.164;8.610;2024-02-04T00:26:22;102071.19;;;8.30;81.08
74778;BME280;63298;53.164;8.610;2024-02-04T00:29:05;102070.31;;;8.29;80.75
74778;BME280;63298;53.164;8.610;2024-02-04T00:31:35;102055.06;;;8.27;81.48
74778;BME280;63298;53.164;8.610;2024-02-04T00:34:01;102057.81;;;8.27;81.11
74778;BME280;63298;53.164;8.610;2024-02-04T00:36:32;102063.72;;;8.23;80.69
74778;BME280;63298;53.164;8.610;2024-02-04T00:39:04;102069.66;;;8.27;80.82
74778;BME280;63298;53.164;8.610;2024-02-04T00:41:29;102062.09;;;8.14;81.14
74778;BME280;63298;53.164;8.610;2024-02-04T00:44:11;102054.91;;;8.13;81.50
74778;BME280;63298;53.164;8.610;2024-02-04T00:46:39;102066.19;;;8.18;81.60
74778;BME280;63298;53.164;8.610;2024-02-04T00:49:07;102056.13;;;8.11;81.23
74778;BME280;63298;53.164;8.610;2024-02-04T00:51:40;102056.97;;;8.11;80.90
74778;BME280;63298;53.164;8.610;2024-02-04T00:54:11;102051.59;;;8.03;81.32
74778;BME280;63298;53.164;8.610;2024-02-04T00:56:49;102065.63;;;8.08;81.59
74778;BME280;63298;53.164;8.610;2024-02-04T00:59:43;102074.50;;;8.10;82.72
74778;BME280;63298;53.164;8.610;2024-02-04T01:02:09;102071.13;;;8.08;81.92
74778;BME280;63298;53.164;8.610;2024-02-04T01:04:35;102069.78;;;8.04;82.41
74778;BME280;63298;53.164;8.610;2024-02-04T01:07:09;102061.91;;;8.01;82.66
74778;BME280;63298;53.164;8.610;2024-02-04T01:09:37;102058.59;;;8.06;82.51
74778;BME280;63298;53.164;8.610;2024-02-04T01:12:13;102049.88;;;8.02;82.07
74778;BME280;63298;53.164;8.610;2024-02-04T01:14:39;102030.78;;;7.94;83.21
74778;BME280;63298;53.164;8.610;2024-02-04T01:17:08;102033.53;;;7.94;82.80
74778;BME280;63298;53.164;8.610;2024-02-04T01:19:41;102044.50;;;7.94;83.03
74778;BME280;63298;53.164;8.610;2024-02-04T01:22:19;102075.75;;;7.93;83.41
74778;BME280;63298;53.164;8.610;2024-02-04T01:24:49;102065.13;;;7.90;83.88
74778;BME280;63298;53.164;8.610;2024-02-04T01:27:30;102064.19;;;7.83;83.67
74778;BME280;63298;53.164;8.610;2024-02-04T01:30:07;102075.19;;;7.83;83.70
74778;BME280;63298;53.164;8.610;2024-02-04T01:32:43;102087.31;;;7.89;84.62
74778;BME280;63298;53.164;8.610;2024-02-04T01:35:17;102080.47;;;7.85;83.96
74778;BME280;63298;53.164;8.610;2024-02-04T01:38:01;102081.91;;;7.80;84.47
74778;BME280;63298;53.164;8.610;2024-02-04T01:40:31;102069.19;;;7.79;84.30
74778;BME280;63298;53.164;8.610;2024-02-04T01:43:25;102071.47;;;7.76;86.09
74778;BME280;63298;53.164;8.610;2024-02-04T01:45:51;102079.09;;;7.89;84.19
74778;BME280;63298;53.164;8.610;2024-02-04T01:48:23;102060.13;;;7.79;84.88
74778;BME280;63298;53.164;8.610;2024-02-04T01:50:58;102056.53;;;7.78;84.91
74778;BME280;63298;53.164;8.610;2024-02-04T01:53:31;102054.94;;;7.84;85.11
74778;BME280;63298;53.164;8.610;2024-02-04T01:56:17;102036.22;;;7.79;84.42
74778;BME280;63298;53.164;8.610;2024-02-04T01:58:48;102029.91;;;7.79;84.07
74778;BME280;63298;53.164;8.610;2024-02-04T02:01:19;102033.50;;;7.79;84.35
74778;BME280;63298;53.164;8.610;2024-02-04T02:03:45;102038.22;;;7.86;84.79
74778;BME280;63298;53.164;8.610;2024-02-04T02:06:13;102024.72;;;7.84;84.44
74778;BME280;63298;53.164;8.610;2024-02-04T02:08:41;102032.56;;;7.87;85.09
74778;BME280;63298;53.164;8.610;2024-02-04T02:11:35;102027.91;;;7.88;84.59
74778;BME280;63298;53.164;8.610;2024-02-04T02:14:03;102021.97;;;7.84;84.44
74778;BME280;63298;53.164;8.610;2024-02-04T02:16:32;102023.63;;;7.85;84.29
74778;BME280;63298;53.164;8.610;2024-02-04T02:21:52;102008.88;;;7.71;85.14
74778;BME280;63298;53.164;8.610;2024-02-04T02:24:30;102031.41;;;7.81;84.52
74778;BME280;63298;53.164;8.610;2024-02-04T02:26:56;102025.19;;;7.73;85.11
74778;BME280;63298;53.164;8.610;2024-02-04T02:29:24;102029.25;;;7.77;84.39
74778;BME280;63298;53.164;8.610;2024-02-04T02:31:50;102030.75;;;7.79;84.55
74778;BME280;63298;53.164;8.610;2024-02-04T02:34:17;102022.78;;;7.70;85.00
74778;BME280;63298;53.164;8.610;2024-02-04T02:36:52;102034.06;;;7.75;84.90
74778;BME280;63298;53.164;8.610;2024-02-04T02:39:25;102046.13;;;7.74;84.82
74778;BME280;63298;53.164;8.610;2024-02-04T02:41:55;102028.56;;;7.60;84.92
74778;BME280;63298;53.164;8.610;2024-02-04T02:44:24;102026.97;;;7.66;84.22
74778;BME280;63298;53.164;8.610;2024-02-04T02:46:51;102021.09;;;7.69;84.23
74778;BME280;63298;53.164;8.610;2024-02-04T02:49:19;102006.25;;;7.63;84.58
74778;BME280;63298;53.164;8.610;2024-02-04T02:51:46;102006.03;;;7.65;84.52
74778;BME280;63298;53.164;8.610;2024-02-04T02:54:13;101996.47;;;7.61;84.45
74778;BME280;63298;53.164;8.610;2024-02-04T02:56:38;101998.19;;;7.62;84.43
74778;BME280;63298;53.164;8.610;2024-02-04T02:59:07;101996.47;;;7.61;84.39
74778;BME280;63298;53.164;8.610;2024-02-04T03:01:39;101992.59;;;7.55;84.77
74778;BME280;63298;53.164;8.610;2024-02-04T03:04:07;102000.47;;;7.58;84.29
74778;BME280;63298;53.164;8.610;2024-02-04T03:06:35;101989.75;;;7.49;84.99
74778;BME280;63298;53.164;8.610;2024-02-04T03:09:08;101999.13;;;7.54;84.41
74778;BME280;63298;53.164;8.610;2024-02-04T03:11:36;101991.47;;;7.50;84.57
74778;BME280;63298;53.164;8.610;2024-02-04T03:14:01;101987.00;;;7.49;84.70
74778;BME280;63298;53.164;8.610;2024-02-04T03:16:32;101987.59;;;7.44;84.63
74778;BME280;63298;53.164;8.610;2024-02-04T03:19:00;101988.44;;;7.45;84.97
74778;BME280;63298;53.164;8.610;2024-02-04T03:21:30;101987.94;;;7.41;84.28
74778;BME280;63298;53.164;8.610;2024-02-04T03:23:55;101987.28;;;7.39;84.85
74778;BME280;63298;53.164;8.610;2024-02-04T03:26:26;101985.88;;;7.43;85.10
74778;BME280;63298;53.164;8.610;2024-02-04T03:28:54;101972.44;;;7.33;85.31
74778;BME280;63298;53.164;8.610;2024-02-04T03:31:23;101975.63;;;7.37;84.26
74778;BME280;63298;53.164;8.610;2024-02-04T03:33:50;101982.09;;;7.29;84.35
74778;BME280;63298;53.164;8.610;2024-02-04T03:36:22;101988.78;;;7.27;85.14
74778;BME280;63298;53.164;8.610;2024-02-04T03:38:54;101992.00;;;7.30;85.43
74778;BME280;63298;53.164;8.610;2024-02-04T03:41:31;101993.41;;;7.26;85.03
74778;BME280;63298;53.164;8.610;2024-02-04T03:43:57;102001.66;;;7.26;85.53
74778;BME280;63298;53.164;8.610;2024-02-04T03:46:28;101991.69;;;7.25;85.48
74778;BME280;63298;53.164;8.610;2024-02-04T03:49:11;101976.38;;;7.16;85.23
74778;BME280;63298;53.164;8.610;2024-02-04T03:51:39;101992.09;;;7.22;85.05
74778;BME280;63298;53.164;8.610;2024-02-04T03:54:07;101982.91;;;7.15;84.90
74778;BME280;63298;53.164;8.610;2024-02-04T03:56:32;101999.84;;;7.19;85.21
74778;BME280;63298;53.164;8.610;2024-02-04T03:59:03;102005.13;;;7.20;84.95
74778;BME280;63298;53.164;8.610;2024-02-04T04:01:29;101976.94;;;7.12;84.98
74778;BME280;63298;53.164;8.610;2024-02-04T04:03:54;101984.97;;;7.13;84.70
74778;BME280;63298;53.164;8.610;2024-02-04T04:06:20;101983.28;;;7.12;84.82
74778;BME280;63298;53.164;8.610;2024-02-04T04:08:48;102007.06;;;7.20;85.03
74778;BME280;63298;53.164;8.610;2024-02-04T04:11:14;101999.38;;;7.15;84.89
74778;BME280;63298;53.164;8.610;2024-02-04T04:13:40;102010.44;;;7.22;84.85
74778;BME280;63298;53.164;8.610;2024-02-04T04:16:08;102018.69;;;7.22;84.56
74778;BME280;63298;53.164;8.610;2024-02-04T04:18:33;101988.28;;;7.09;84.68
74778;BME280;63298;53.164;8.610;2024-02-04T04:21:07;101980.91;;;7.09;85.00
74778;BME280;63298;53.164;8.610;2024-02-04T04:23:38;101996.06;;;7.20;84.80
74778;BME280;63298;53.164;8.610;2024-02-04T04:26:08;101991.31;;;7.14;84.68
74778;BME280;63298;53.164;8.610;2024-02-04T04:28:39;101997.47;;;7.16;84.93
74778;BME280;63298;53.164;8.610;2024-02-04T04:31:05;101993.22;;;7.13;84.65
74778;BME280;63298;53.164;8.610;2024-02-04T04:33:33;101987.03;;;7.11;84.58
74778;BME280;63298;53.164;8.610;2024-02-04T04:35:58;102004.09;;;7.21;84.39
74778;BME280;63298;53.164;8.610;2024-02-04T04:38:24;102004.47;;;7.18;84.57
74778;BME280;63298;53.164;8.610;2024-02-04T04:40:49;101990.84;;;7.10;84.29
74778;BME280;63298;53.164;8.610;2024-02-04T04:43:15;102003.16;;;7.14;84.33
74778;BME280;63298;53.164;8.610;2024-02-04T04:45:40;101997.00;;;7.12;84.38
74778;BME280;63298;53.164;8.610;2024-02-04T04:48:08;101987.91;;;7.12;84.14
74778;BME280;63298;53.164;8.610;2024-02-04T04:50:37;101969.66;;;7.04;84.35
74778;BME280;63298;53.164;8.610;2024-02-04T04:53:03;101996.34;;;7.10;84.26
74778;BME280;63298;53.164;8.610;2024-02-04T04:55:29;101985.81;;;6.99;83.90
74778;BME280;63298;53.164;8.610;2024-02-04T04:57:56;101984.38;;;7.03;84.01
74778;BME280;63298;53.164;8.610;2024-02-04T05:00:22;101988.16;;;7.02;83.51
74778;BME280;63298;53.164;8.610;2024-02-04T05:02:47;101982.69;;;7.02;84.29
74778;BME280;63298;53.164;8.610;2024-02-04T05:05:13;101976.84;;;7.05;84.00
74778;BME280;63298;53.164;8.610;2024-02-04T05:07:41;101977.56;;;6.99;83.90
74778;BME280;63298;53.164;8.610;2024-02-04T05:10:07;101985.13;;;6.97;84.05
74778;BME280;63298;53.164;8.610;2024-02-04T05:12:36;102010.97;;;7.03;83.95
74778;BME280;63298;53.164;8.610;2024-02-04T05:15:01;101980.97;;;7.01;83.79
74778;BME280;63298;53.164;8.610;2024-02-04T05:17:27;101980.50;;;6.98;83.56
74778;BME280;63298;53.164;8.610;2024-02-04T05:19:54;101984.78;;;7.00;84.01
74778;BME280;63298;53.164;8.610;2024-02-04T05:22:20;101973.69;;;6.93;84.03
74778;BME280;63298;53.164;8.610;2024-02-04T05:24:45;101965.75;;;6.99;83.77
74778;BME280;63298;53.164;8.610;2024-02-04T05:27:11;101956.66;;;6.98;83.83
74778;BME280;63298;53.164;8.610;2024-02-04T05:29:42;101951.56;;;6.95;83.80
74778;BME280;63298;53.164;8.610;2024-02-04T05:32:08;101956.28;;;7.01;83.57
74778;BME280;63298;53.164;8.610;2024-02-04T05:34:33;101940.50;;;7.03;83.44
74778;BME280;63298;53.164;8.610;2024-02-04T05:36:59;101935.97;;;6.96;83.76
74778;BME280;63298;53.164;8.610;2024-02-04T05:39:24;101927.53;;;6.97;83.34
74778;BME280;63298;53.164;8.610;2024-02-04T05:41:50;101937.63;;;6.97;83.23
74778;BME280;63298;53.164;8.610;2024-02-04T05:44:15;101935.56;;;6.99;83.44
74778;BME280;63298;53.164;8.610;2024-02-04T05:46:41;101920.53;;;6.94;83.51
74778;BME280;63298;53.164;8.610;2024-02-04T05:49:07;101918.81;;;6.93;82.97
74778;BME280;63298;53.164;8.610;2024-02-04T05:51:37;101931.50;;;6.94;83.24
74778;BME280;63298;53.164;8.610;2024-02-04T05:54:05;101935.41;;;7.00;83.32
74778;BME280;63298;53.164;8.610;2024-02-04T05:56:30;101916.19;;;6.85;83.01
74778;BME280;63298;53.164;8.610;2024-02-04T05:58:55;101916.94;;;6.94;83.36
74778;BME280;63298;53.164;8.610;2024-02-04T06:01:21;101912.09;;;6.96;82.75
74778;BME280;63298;53.164;8.610;2024-02-04T06:03:46;101903.78;;;6.89;83.29
74778;BME280;63298;53.164;8.610;2024-02-04T06:06:16;101912.09;;;6.96;83.16
74778;BME280;63298;53.164;8.610;2024-02-04T06:08:42;101911.16;;;6.89;83.53
74778;BME280;63298;53.164;8.610;2024-02-04T06:11:12;101904.81;;;6.88;83.42
74778;BME280;63298;53.164;8.610;2024-02-04T06:13:44;101904.34;;;6.85;83.53
74778;BME280;63298;53.164;8.610;2024-02-04T06:16:10;101905.00;;;6.87;83.07
74778;BME280;63298;53.164;8.610;2024-02-04T06:18:36;101898.31;;;6.89;83.60
74778;BME280;63298;53.164;8.610;2024-02-04T06:21:01;101899.03;;;6.83;83.62
74778;BME280;63298;53.164;8.610;2024-02-04T06:23:32;101906.03;;;6.86;83.68
74778;BME280;63298;53.164;8.610;2024-02-04T06:25:57;101887.91;;;6.85;83.83
74778;BME280;63298;53.164;8.610;2024-02-04T06:28:23;101878.59;;;6.86;83.47
74778;BME280;63298;53.164;8.610;2024-02-04T06:30:51;101883.91;;;6.87;83.26
74778;BME280;63298;53.164;8.610;2024-02-04T06:33:17;101886.47;;;6.89;83.54
74778;BME280;63298;53.164;8.610;2024-02-04T06:35:46;101897.78;;;6.86;83.07
74778;BME280;63298;53.164;8.610;2024-02-04T06:38:11;101891.78;;;6.90;83.24
74778;BME280;63298;53.164;8.610;2024-02-04T06:40:39;101865.19;;;6.91;83.51
74778;BME280;63298;53.164;8.610;2024-02-04T06:43:07;101894.03;;;7.02;82.93
74778;BME280;63298;53.164;8.610;2024-02-04T06:45:35;101886.75;;;6.94;83.39
74778;BME280;63298;53.164;8.610;2024-02-04T06:48:03;101893.19;;;7.01;83.45
74778;BME280;63298;53.164;8.610;2024-02-04T06:50:28;101891.50;;;7.00;83.56
74778;BME280;63298;53.164;8.610;2024-02-04T06:52:54;101901.97;;;6.97;83.37
74778;BME280;63298;53.164;8.610;2024-02-04T06:55:20;101897.16;;;6.99;83.55
74778;BME280;63298;53.164;8.610;2024-02-04T06:57:45;101903.31;;;7.01;83.94
74778;BME280;63298;53.164;8.610;2024-02-04T07:00:14;101877.97;;;6.99;83.75
74778;BME280;63298;53.164;8.610;2024-02-04T07:02:40;101887.13;;;7.06;83.81
74778;BME280;63298;53.164;8.610;2024-02-04T07:05:05;101888.66;;;7.08;83.21
74778;BME280;63298;53.164;8.610;2024-02-04T07:07:31;101881.47;;;7.07;83.79
74778;BME280;63298;53.164;8.610;2024-02-04T07:09:59;101879.75;;;7.06;83.49
74778;BME280;63298;53.164;8.610;2024-02-04T07:12:27;101870.88;;;7.04;83.64
74778;BME280;63298;53.164;8.610;2024-02-04T07:14:53;101888.56;;;7.02;83.86
74778;BME280;63298;53.164;8.610;2024-02-04T07:17:22;101879.56;;;7.08;83.78
74778;BME280;63298;53.164;8.610;2024-02-04T07:19:47;101870.78;;;7.12;83.45
74778;BME280;63298;53.164;8.610;2024-02-04T07:22:15;101882.03;;;7.17;83.41
74778;BME280;63298;53.164;8.610;2024-02-04T07:24:43;101886.03;;;7.15;83.12
74778;BME280;63298;53.164;8.610;2024-02-04T07:27:11;101881.19;;;7.17;83.44
74778;BME280;63298;53.164;8.610;2024-02-04T07:29:37;101883.19;;;7.23;83.51
74778;BME280;63298;53.164;8.610;2024-02-04T07:32:08;101880.81;;;7.20;82.84
74778;BME280;63298;53.164;8.610;2024-02-04T07:34:36;101867.28;;;7.18;82.87
74778;BME280;63298;53.164;8.610;2024-02-04T07:37:01;101857.22;;;7.25;83.41
74778;BME280;63298;53.164;8.610;2024-02-04T07:39:27;101852.88;;;7.16;83.14
74778;BME280;63298;53.164;8.610;2024-02-04T07:41:55;101829.91;;;7.17;82.74
74778;BME280;63298;53.164;8.610;2024-02-04T14:36:15;101686.31;;;9.05;76.64
74778;BME280;63298;53.164;8.610;2024-02-04T14:38:40;101695.03;;;9.15;75.95
74778;BME280;63298;53.164;8.610;2024-02-04T14:41:05;101691.00;;;9.18;76.57
74778;BME280;63298;53.164;8.610;2024-02-04T14:44:04;101693.75;;;9.18;76.24
74778;BME280;63298;53.164;8.610;2024-02-04T18:25:27;101489.66;;;8.81;85.30
74778;BME280;63298;53.164;8.610;2024-02-04T18:27:56;101498.31;;;8.85;86.18
74778;BME280;63298;53.164;8.610;2024-02-04T18:30:23;101481.59;;;8.80;86.80
74778;BME280;63298;53.164;8.610;2024-02-04T18:33:05;101476.94;;;8.80;86.48
74778;BME280;63298;53.164;8.610;2024-02-04T18:35:54;101461.03;;;8.69;89.36
74778;BME280;63298;53.164;8.610;2024-02-04T18:38:29;101451.97;;;8.75;88.06
74778;BME280;63298;53.164;8.610;2024-02-04T18:40:55;101452.81;;;8.76;87.56
74778;BME280;63298;53.164;8.610;2024-02-04T18:43:23;101464.06;;;8.87;87.88
74778;BME280;63298;53.164;8.610;2024-02-04T18:46:15;101455.38;;;8.90;87.46
